Airfield :
LOGIN :

Register | Disclaimer

   EN    FR    IT 

 










Legend :    VFR   Marginal VFR   IFR   Intensive IFR   Very Intensive IFR
Visi :
Ceiling :
>= 8 km
>= 3000ft
5 to 8 km
1000 to 3000 ft
1500m to 5 km
500 to 1000 ft
800 to 1500m
200 to 500 ft
< 800m
< 200 ft
Symbols :   Thunderstorms  Fog  Heavy snow  Heavy precipitations  Wind > 20 kt
SIGMETs :     Misc.  Thunderstorms  Icing  Turbulence  Mountain Waves  Volcanic Ashes







- Airport Elevation : 12 ft
- IATA code : BCN


LEBL - Barcelone

CURRENT METAR :
  • 252100Z 33007KT 9999 FEW030 10/06 Q1018 NOSIG

EXPIRED METARs :
  • 252030Z 33009KT 9999 FEW030 10/05 Q1018 NOSIG
  • 252000Z 33007KT 9999 FEW030 10/06 Q1018 NOSIG
  • 251930Z 33008KT 9999 FEW030 11/05 Q1017 NOSIG
  • 251900Z 33006KT 9999 FEW030 11/05 Q1017 NOSIG

TAF TAF LEBL
Valid from the 25 at 18:00 until the 26 at 18:00 UTC


251700Z 2518/2618 VRB05KT 9999 SCT030 TX18/2613Z TN09/2606Z
TEMPO 2518/2523 22008KT
TEMPO 2600/2610 34008KT
PROB30
TEMPO 2602/2608 BKN014
BECMG 2610/2612 22010KT
No reported NOTAMs for that airfield.



MET'MAP, your aeronautical weather chart ! - Copyright ORBIFLY December 2007 - Disclaimer

ORBIFLY MET'MAP TEAM :

Programming & Development : Alexandra Zaïnal
Concept & Development : Baudouin d'Aumeries
Co-Development & Prog : Marc-Olivier Méhu
Technical & hardware support : Manuel Goepfert

Contact : metmap@orbifly.com




SOURCES & CREDITS :

   NOAA